CW3467 Sant Marti de Canals ES current weather conditions

sailwx.info

Wind from 224 at 0 knots gusting 6

Air temperature 22.2° C
Dewpoint 6.0° C

Last reported at 2016-May-24 12:43 UTC.
Time now 2016-May-24 13:49 UTC

Location: N 42°14' E 000°59'.
View on Google Maps.

See reports from other nearby stations

  
Tides and Currents Weather Stations Pressure Air Temp Water Temp Dewpoint Dewpoint Depression Visibility Wind Speed Wind Dir Waves Ship Positions
date/time (UTC)wind fromknots sea level pressurealtimeterstation pressurevisibilityair tempwater tempwave heightnotes
2016-May-24 12:43 224 0 gusting 6 22.2
2016-May-24 12:28 252 2 gusting 6 22.2
2016-May-24 12:13 215 1 gusting 5 21.7
2016-May-24 11:58 143 1 gusting 5 21.1
2016-May-24 11:43 228 2 gusting 6 20.6
2016-May-24 11:28 173 2 gusting 6 20.0
2016-May-24 11:13 232 3 gusting 6 20.0
2016-May-24 10:58 245 1 gusting 6 20.0
2016-May-24 10:43 212 2 gusting 6 18.9
2016-May-24 10:28 222 2 gusting 5 19.4
2016-May-24 10:13 309 0 gusting 5 18.3
2016-May-24 09:58 253 18.3
2016-May-24 09:43 221 1 gusting 5 17.2
2016-May-24 09:28 198 1 gusting 3 17.8
2016-May-24 09:13 197 17.2
2016-May-24 08:58 252 0 gusting 2 16.7
2016-May-24 08:43 229 15.6
2016-May-24 08:28 232 0 gusting 4 15.0
2016-May-24 08:12 225 15.6
2016-May-24 07:57 226 14.4
2016-May-24 07:42 245 13.9
2016-May-24 07:27 160 0 gusting 2 13.9
2016-May-24 07:12 231 0 gusting 2 13.3
2016-May-24 06:57 193 13.3
2016-May-24 06:42 127 11.7
2016-May-24 06:27 153 0 gusting 2 10.6
2016-May-24 06:12 115 10.0
2016-May-24 05:57 103 0 gusting 1 8.9
2016-May-24 05:42 142 8.9
2016-May-24 05:27 075 8.3
2016-May-24 05:12 086 7.8
2016-May-24 04:57 072 8.3
2016-May-24 04:42 074 8.3
2016-May-24 04:29 006 8.3
2016-May-24 04:14 104 0 gusting 2 8.3
2016-May-24 03:57 148 8.3
2016-May-24 03:42 110 8.3
2016-May-24 03:27 110 8.3
2016-May-24 03:12 107 8.3
2016-May-24 02:57 274 8.3
2016-May-24 02:43 274 8.9
2016-May-24 02:27 136 8.9
2016-May-24 02:12 131 8.9
2016-May-24 01:56 248 8.9
2016-May-24 01:44 248 8.9
2016-May-24 01:26 145 8.9
2016-May-24 01:11 049 9.4
2016-May-24 00:56 072 9.4
2016-May-24 00:41 129 9.4
2016-May-24 00:26 102 10.0
2016-May-24 00:11 100 10.0
2016-May-23 23:56 036 10.6
2016-May-23 23:41 100 10.6
2016-May-23 23:26 114 0 gusting 2 10.6
2016-May-23 23:11 120 2 gusting 3 10.6
2016-May-23 22:56 153 2 gusting 5 11.1
2016-May-23 22:41 047 0 gusting 2 11.7
2016-May-23 22:26 115 12.2
2016-May-23 22:11 104 12.8
2016-May-23 21:56 063 12.8
2016-May-23 21:41 063 12.8
2016-May-23 21:26 243 13.3
2016-May-23 21:11 107 3 gusting 4 13.3
2016-May-23 20:56 136 2 gusting 5 13.9
2016-May-23 20:41 112 3 gusting 8 13.9
2016-May-23 20:26 129 4 gusting 6 13.9
2016-May-23 20:11 153 3 gusting 6 14.4
2016-May-23 19:56 153 2 gusting 6 14.4
2016-May-23 19:41 150 3 gusting 6 14.4
2016-May-23 19:26 139 4 gusting 8 15.0
2016-May-23 19:11 159 2 gusting 6 15.0
2016-May-23 18:56 235 3 gusting 6 16.1
2016-May-23 18:43 218 1 gusting 5 17.2
2016-May-23 18:26 210 2 gusting 6 17.8
2016-May-23 18:11 193 3 gusting 10 17.8
2016-May-23 17:56 239 4 gusting 10 18.3
2016-May-23 17:41 224 5 gusting 10 18.9
2016-May-23 17:26 210 2 gusting 5 19.4
2016-May-23 17:11 188 3 gusting 6 19.4
2016-May-23 16:56 225 4 gusting 7 19.4
2016-May-23 16:41 210 4 gusting 8 20.0
2016-May-23 16:26 231 0 gusting 5 20.0
2016-May-23 16:11 212 1 gusting 5 20.0
2016-May-23 15:55 234 2 gusting 8 20.0
2016-May-23 15:40 250 0 gusting 6 20.0
2016-May-23 15:26 256 4 gusting 6 19.4
2016-May-23 15:10 244 3 gusting 9 19.4
2016-May-23 14:55 219 2 gusting 6 19.4
2016-May-23 14:40 212 2 gusting 11 19.4
2016-May-23 14:25 145 4 gusting 11 19.4
2016-May-23 14:11 241 5 gusting 9 18.9
2016-May-23 13:55 235 5 gusting 9 18.9
2016-May-23 13:40 219 4 gusting 7 18.3
2016-May-23 13:25 219 4 gusting 12 18.9
2016-May-23 13:10 259 5 gusting 11 18.3
2016-May-23 12:55 215 2 gusting 11 18.9
2016-May-23 12:40 212 3 gusting 9 18.3
2016-May-23 12:25 268 4 gusting 8 18.3
2016-May-23 12:10 269 0 gusting 6 18.3
2016-May-23 11:55 249 0 gusting 6 17.8
2016-May-23 11:40 080 2 gusting 7 17.8
2016-May-23 11:25 214 1 gusting 6 17.2
2016-May-23 11:10 225 3 gusting 6 17.2
2016-May-23 10:55 110 0 gusting 4 17.2
2016-May-23 10:40 252 1 gusting 5 16.7
2016-May-23 10:25 148 1 gusting 5 16.7
2016-May-23 10:10 259 0 gusting 6 16.1
2016-May-23 09:55 253 2 gusting 4 16.1
2016-May-23 09:40 240 15.6
2016-May-23 09:25 231 15.6
2016-May-23 09:10 147 0 gusting 2 14.4
2016-May-23 08:55 249 13.3
2016-May-23 08:40 246 0 gusting 3 12.8
2016-May-23 08:25 229 0 gusting 3 13.3
2016-May-23 08:10 111 12.8
2016-May-23 07:55 235 0 gusting 1 11.7
2016-May-23 07:39 228 0 gusting 2 10.6
2016-May-23 07:24 236 10.6
2016-May-23 07:09 135 10.0
2016-May-23 06:54 223 8.9
2016-May-23 06:39 215 7.8
2016-May-23 06:24 162 0 gusting 1 6.7
2016-May-23 06:09 038 6.1
2016-May-23 05:54 108 0 gusting 2 5.6
2016-May-23 05:39 116 1 gusting 2 4.4
2016-May-23 05:24 128 5.0
2016-May-23 05:09 115 4.4
2016-May-23 04:54 155 1 gusting 5 4.4
2016-May-23 04:39 138 2 gusting 4 5.0
2016-May-23 04:24 344 5.0
2016-May-23 04:09 027 5.6
2016-May-23 03:54 341 5.6
2016-May-23 03:39 114 0 gusting 2 5.0
2016-May-23 03:24 346 5.6
2016-May-23 03:09 095 0 gusting 1 6.1
2016-May-23 02:54 352 0 gusting 2 6.1
2016-May-23 02:39 043 6.1
2016-May-23 02:24 022 6.1
2016-May-23 02:09 141 6.7
2016-May-23 01:54 122 1 gusting 2 7.2
2016-May-23 01:39 113 1 gusting 2 6.7
2016-May-23 01:23 145 0 gusting 3 7.8
2016-May-23 01:08 126 1 gusting 1 7.8
2016-May-23 00:53 097 7.8
2016-May-23 00:38 213 8.3
2016-May-23 00:23 134 0 gusting 2 8.9
2016-May-23 00:08 135 1 gusting 3 8.9
2016-May-22 23:53 121 0 gusting 4 8.3
2016-May-22 23:38 133 2 gusting 5 8.9
2016-May-22 23:23 250 11.1
2016-May-22 23:08 053 4 gusting 10 10.6
2016-May-22 22:53 052 0 gusting 4 11.1
2016-May-22 22:38 029 2 gusting 6 11.1
2016-May-22 22:23 166 1 gusting 6 11.1
2016-May-22 22:08 077 0 gusting 5 11.1
2016-May-22 21:53 041 2 gusting 7 11.7
2016-May-22 21:37 091 3 gusting 7 11.7
2016-May-22 21:22 079 1 gusting 7 12.2
2016-May-22 21:07 053 2 gusting 5 12.2
2016-May-22 20:52 332 5 gusting 10 12.8
2016-May-22 20:37 049 3 gusting 11 12.8
2016-May-22 20:22 352 5 gusting 12 12.8
2016-May-22 20:07 053 6 gusting 13 13.3
2016-May-22 19:52 061 6 gusting 13 13.3
2016-May-22 19:37 359 5 gusting 10 13.9
2016-May-22 19:22 029 5 gusting 11 14.4
2016-May-22 19:07 047 3 gusting 8 15.6
2016-May-22 18:52 267 0 gusting 6 16.1
2016-May-22 18:37 243 1 gusting 8 17.2
2016-May-22 18:22 215 2 gusting 11 17.8
2016-May-22 18:07 246 2 gusting 8 18.3
2016-May-22 17:52 266 5 gusting 13 18.3
2016-May-22 17:37 231 1 gusting 7 18.9
2016-May-22 17:22 049 1 gusting 8 18.9
2016-May-22 17:07 304 1 gusting 10 18.9
2016-May-22 16:52 215 7 gusting 13 18.3
2016-May-22 16:37 236 6 gusting 9 18.3
2016-May-22 16:22 241 4 gusting 6 18.3
2016-May-22 16:07 217 3 gusting 6 18.3
2016-May-22 15:52 238 0 gusting 5 18.9
2016-May-22 15:37 108 17.8
2016-May-22 15:22 139 16.7
2016-May-22 15:07 231 16.1
2016-May-22 14:52 021 0 gusting 5 14.4
2016-May-22 14:37 124 13.9
2016-May-22 14:22 019 4 gusting 23 13.9
2016-May-22 14:07 290 6 gusting 16 18.3
2016-May-22 13:52 255 4 gusting 11 18.9
2016-May-22 13:37 203 5 gusting 9 19.4
2016-May-22 13:22 215 4 gusting 8 20.0
2016-May-22 13:07 225 0 gusting 4 21.7